Time;durP1;ratioP1;P1;durP2;ratioP2;P2;SDS_P1;SDS_P2;PMS_P1;PMS_P2;Temp;Humidity;BMP_temperature;BMP_pressure;BME280_temperature;BME280_humidity;BME280_pressure;Samples;Min_cycle;Max_cycle;Signal;HPM_P1;HPM_P2
2022/04/26 03:36:06;;;;;;;;;;;13.30;84.30;;;;;;5015257;28;19960;-66
2022/04/26 03:38:18;;;;;;;;;;;9.80;95.80;;;;;;5022435;28;19948;-65
2022/04/26 03:40:43;;;;;;;;;;;9.80;96.10;;;;;;5022336;28;19997;-67
2022/04/26 03:43:09;;;;;;;;;;;9.80;96.10;;;;;;5022469;28;19910;-66
2022/04/26 03:45:35;;;;;;;;;;;9.60;96.70;;;;;;5022344;28;19984;-67
2022/04/26 03:48:00;;;;;;;;;;;9.60;97.30;;;;;;5022446;28;19910;-65
2022/04/26 03:50:26;;;;;;;;;;;9.50;97.50;;;;;;5022361;28;19909;-66
2022/04/26 03:52:53;;;;;;;;;;;9.50;97.60;;;;;;5022265;28;20256;-66
2022/04/26 03:55:20;;;;;;;;;;;9.60;97.50;;;;;;5022544;28;19987;-65
2022/04/26 03:57:46;;;;;;;;;;;9.50;97.80;;;;;;5022475;28;19948;-65
2022/04/26 04:00:12;;;;;;;;;;;9.40;98.50;;;;;;5021695;28;20303;-65
2022/04/26 04:02:38;;;;;;;;;;;9.30;99.00;;;;;;5022273;28;19909;-67
2022/04/26 04:05:04;;;;;;;;;;;9.30;99.00;;;;;;5022506;28;20208;-67
2022/04/26 04:07:30;;;;;;;;;;;9.30;99.00;;;;;;5022179;28;19956;-65
2022/04/26 04:09:56;;;;;;;;;;;9.30;99.10;;;;;;5022292;28;20259;-65
2022/04/26 04:12:21;;;;;;;;;;;9.30;99.30;;;;;;5022094;28;19913;-65
2022/04/26 04:14:47;;;;;;;;;;;9.30;99.10;;;;;;5022058;28;19937;-65
2022/04/26 04:17:13;;;;;;;;;;;9.20;99.80;;;;;;5022107;28;19956;-66
2022/04/26 04:19:38;;;;;;;;;;;9.20;99.90;;;;;;5022122;28;19917;-66
2022/04/26 04:22:05;;;;;;;;;;;9.20;99.90;;;;;;5022001;28;19971;-66
2022/04/26 04:24:32;;;;;;;;;;;9.20;99.90;;;;;;5022219;28;19945;-66
2022/04/26 04:26:57;;;;;;;;;;;9.20;99.90;;;;;;5022210;28;19909;-65
2022/04/26 04:29:23;;;;;;;;;;;9.20;99.90;;;;;;5024970;28;19944;-66
2022/04/26 04:31:49;;;;;;;;;;;9.10;99.90;;;;;;5024233;28;19914;-66
2022/04/26 04:34:15;;;;;;;;;;;9.10;99.90;;;;;;5025153;28;19917;-66
2022/04/26 04:36:41;;;;;;;;;;;9.00;99.90;;;;;;5025764;28;19973;-66
2022/04/26 04:39:07;;;;;;;;;;;9.00;99.90;;;;;;5025637;28;19910;-67
2022/04/26 04:41:36;;;;;;;;;;;9.10;99.90;;;;;;5025601;28;19910;-66
2022/04/26 04:44:04;;;;;;;;;;;9.00;99.90;;;;;;5025672;28;19944;-65
2022/04/26 04:46:29;;;;;;;;;;;9.00;99.90;;;;;;5025499;28;19909;-66
2022/04/26 04:48:55;;;;;;;;;;;9.00;99.90;;;;;;5025696;28;20048;-66
2022/04/26 04:51:21;;;;;;;;;;;9.00;99.90;;;;;;5023720;28;19956;-66
2022/04/26 04:53:46;;;;;;;;;;;9.00;99.90;;;;;;5022499;28;19913;-65
2022/04/26 04:56:13;;;;;;;;;;;9.10;99.90;;;;;;5014766;28;19921;-67
2022/04/26 04:58:38;;;;;;;;;;;9.20;99.90;;;;;;5022433;28;19917;-69
2022/04/26 05:01:04;;;;;;;;;;;9.10;99.90;;;;;;5016742;28;19956;-69
2022/04/26 05:03:30;;;;;;;;;;;9.10;99.90;;;;;;5021283;28;19914;-69
2022/04/26 05:05:56;;;;;;;;;;;9.10;99.90;;;;;;5019620;28;19955;-69
2022/04/26 05:08:21;;;;;;;;;;;9.10;99.90;;;;;;5025058;28;19944;-69
2022/04/26 05:10:47;;;;;;;;;;;9.10;99.90;;;;;;5024963;28;19910;-70
2022/04/26 05:13:12;;;;;;;;;;;9.10;99.90;;;;;;5024529;28;19920;-69
2022/04/26 05:15:38;;;;;;;;;;;9.10;99.90;;;;;;5024953;28;19928;-68
2022/04/26 05:18:05;;;;;;;;;;;9.00;99.90;;;;;;5024963;28;19999;-68
2022/04/26 05:20:31;;;;;;;;;;;9.10;99.90;;;;;;5025082;28;19913;-68
2022/04/26 05:25:41;;;;;;;;;;;9.10;99.90;;;;;;5024731;28;19959;-68
2022/04/26 05:28:07;;;;;;;;;;;9.10;99.90;;;;;;5024752;28;19914;-68
2022/04/26 05:30:32;;;;;;;;;;;9.20;99.90;;;;;;5024366;28;19909;-68
2022/04/26 05:32:58;;;;;;;;;;;9.20;99.90;;;;;;5023987;28;19953;-69
2022/04/26 05:35:24;;;;;;;;;;;9.10;99.90;;;;;;5025532;28;19939;-69
2022/04/26 05:37:50;;;;;;;;;;;9.10;99.90;;;;;;5033801;28;19916;-69
2022/04/26 05:40:15;;;;;;;;;;;9.10;99.90;;;;;;5026537;28;20193;-69
2022/04/26 05:42:41;;;;;;;;;;;9.10;99.90;;;;;;5024276;28;19910;-69
2022/04/26 05:45:07;;;;;;;;;;;9.20;99.90;;;;;;5024416;28;19917;-73
2022/04/26 05:47:33;;;;;;;;;;;9.20;99.90;;;;;;5023654;28;20105;-74
2022/04/26 05:49:59;;;;;;;;;;;9.20;99.90;;;;;;5024156;28;19925;-74
2022/04/26 05:52:25;;;;;;;;;;;9.30;99.90;;;;;;5055846;28;20090;-73
2022/04/26 05:54:51;;;;;;;;;;;9.30;99.90;;;;;;5023825;28;19997;-68
2022/04/26 05:57:17;;;;;;;;;;;9.30;99.90;;;;;;5023936;28;19916;-71
2022/04/26 05:59:42;;;;;;;;;;;9.40;99.90;;;;;;5024256;28;19941;-71
2022/04/26 06:02:08;;;;;;;;;;;9.30;99.90;;;;;;5055219;28;19987;-70
2022/04/26 06:04:34;;;;;;;;;;;9.30;99.90;;;;;;5023916;28;19951;-73
2022/04/26 06:07:00;;;;;;;;;;;9.30;99.90;;;;;;5059553;28;19935;-72
2022/04/26 06:09:26;;;;;;;;;;;9.50;99.90;;;;;;5044253;28;19921;-75
2022/04/26 06:11:52;;;;;;;;;;;9.60;99.90;;;;;;5043825;28;20020;-67
2022/04/26 06:14:17;;;;;;;;;;;9.70;99.90;;;;;;5043798;28;19909;-69
2022/04/26 06:16:43;;;;;;;;;;;9.60;99.90;;;;;;5043736;28;19992;-68
2022/04/26 06:19:10;;;;;;;;;;;9.50;99.90;;;;;;5043411;28;20225;-69
2022/04/26 06:21:35;;;;;;;;;;;9.60;99.90;;;;;;5043425;28;19916;-66
2022/04/26 06:24:01;;;;;;;;;;;9.60;99.90;;;;;;5043490;28;20208;-70
2022/04/26 06:26:27;;;;;;;;;;;9.60;99.90;;;;;;5043875;28;19913;-69
2022/04/26 06:28:52;;;;;;;;;;;9.70;99.90;;;;;;5043104;28;20212;-70
2022/04/26 06:31:18;;;;;;;;;;;9.70;99.90;;;;;;5031617;28;19921;-70
2022/04/26 06:33:44;;;;;;;;;;;9.60;99.90;;;;;;5055571;28;19909;-72
2022/04/26 06:36:10;;;;;;;;;;;9.80;99.90;;;;;;5022718;28;20112;-72
2022/04/26 06:38:35;;;;;;;;;;;9.70;99.90;;;;;;5023432;28;19972;-69
2022/04/26 06:41:01;;;;;;;;;;;9.60;99.90;;;;;;5023094;28;19959;-68
2022/04/26 06:43:29;;;;;;;;;;;9.60;99.90;;;;;;5023466;28;19940;-74
2022/04/26 06:45:55;;;;;;;;;;;9.60;99.90;;;;;;5023407;28;20323;-68
2022/04/26 06:48:20;;;;;;;;;;;9.60;99.90;;;;;;5022804;28;19956;-70
2022/04/26 06:50:46;;;;;;;;;;;9.60;99.90;;;;;;5021930;28;19948;-68
2022/04/26 06:53:13;;;;;;;;;;;9.60;99.90;;;;;;5023014;28;19936;-69
2022/04/26 06:55:38;;;;;;;;;;;9.60;99.90;;;;;;5023070;28;19923;-68
2022/04/26 06:58:04;;;;;;;;;;;9.60;99.90;;;;;;5023214;28;19941;-73
2022/04/26 07:00:30;;;;;;;;;;;9.50;99.90;;;;;;5022997;28;19913;-72
2022/04/26 07:02:56;;;;;;;;;;;9.50;99.90;;;;;;5025649;28;19980;-72
2022/04/26 07:05:22;;;;;;;;;;;9.50;99.90;;;;;;5030932;28;19909;-72
2022/04/26 07:07:52;;;;;;;;;;;9.50;99.90;;;;;;5030984;28;19916;-69
2022/04/26 07:10:18;;;;;;;;;;;9.60;99.90;;;;;;5022758;28;19941;-67
2022/04/26 07:12:43;;;;;;;;;;;9.60;99.90;;;;;;5022922;28;19929;-68
2022/04/26 07:15:09;;;;;;;;;;;9.60;99.90;;;;;;5022834;28;19909;-69
2022/04/26 07:17:39;;;;;;;;;;;9.70;99.90;;;;;;5022561;28;19910;-68
2022/04/26 07:20:05;;;;;;;;;;;9.80;99.90;;;;;;5022417;28;20263;-70
2022/04/26 07:22:32;;;;;;;;;;;9.80;99.90;;;;;;5022637;28;19913;-70
2022/04/26 07:24:57;;;;;;;;;;;9.70;99.90;;;;;;5054265;28;19913;-70
2022/04/26 07:27:23;;;;;;;;;;;9.70;99.90;;;;;;5022687;28;19928;-68
2022/04/26 07:29:50;;;;;;;;;;;9.70;99.90;;;;;;5022461;28;19953;-68
2022/04/26 07:32:15;;;;;;;;;;;9.70;99.90;;;;;;5022386;28;19913;-68
2022/04/26 07:34:41;;;;;;;;;;;9.70;99.90;;;;;;5022424;28;20208;-68
2022/04/26 07:37:07;;;;;;;;;;;9.80;99.90;;;;;;5021917;28;19917;-68
2022/04/26 07:39:33;;;;;;;;;;;9.90;99.90;;;;;;5022441;28;19917;-67
2022/04/26 07:41:59;;;;;;;;;;;10.00;99.90;;;;;;5022170;28;19924;-68
2022/04/26 07:44:25;;;;;;;;;;;10.00;99.90;;;;;;5022876;28;20108;-68
2022/04/26 07:46:51;;;;;;;;;;;9.90;99.90;;;;;;5022666;28;19919;-67
2022/04/26 07:49:17;;;;;;;;;;;9.90;99.90;;;;;;5037319;28;20089;-67
2022/04/26 07:51:43;;;;;;;;;;;10.10;99.90;;;;;;5022232;28;19919;-69
2022/04/26 07:54:11;;;;;;;;;;;10.10;99.90;;;;;;5021838;28;20036;-69
2022/04/26 07:56:37;;;;;;;;;;;10.20;99.90;;;;;;5022509;28;19980;-69
2022/04/26 07:59:04;;;;;;;;;;;10.20;99.90;;;;;;5022143;28;20137;-69
2022/04/26 08:01:32;;;;;;;;;;;10.30;99.90;;;;;;5021752;28;20008;-69
2022/04/26 08:03:58;;;;;;;;;;;10.20;99.90;;;;;;5025003;28;19909;-67
2022/04/26 08:06:24;;;;;;;;;;;10.20;99.90;;;;;;5026153;28;20105;-67
2022/04/26 08:08:50;;;;;;;;;;;10.20;99.90;;;;;;5025981;28;19909;-67
2022/04/26 08:11:15;;;;;;;;;;;10.10;99.90;;;;;;5026021;28;19946;-67
2022/04/26 08:13:42;;;;;;;;;;;10.00;99.90;;;;;;5026211;28;19948;-67
2022/04/26 08:16:08;;;;;;;;;;;10.00;99.90;;;;;;5041427;28;19980;-67
2022/04/26 08:18:34;;;;;;;;;;;10.00;99.90;;;;;;5025739;28;19917;-68
2022/04/26 08:21:00;;;;;;;;;;;9.90;99.90;;;;;;5036384;28;19986;-66
2022/04/26 08:23:25;;;;;;;;;;;9.90;99.90;;;;;;5024657;28;19913;-68
2022/04/26 08:28:36;;;;;;;;;;;10.00;99.90;;;;;;5025834;28;19921;-66
2022/04/26 08:31:01;;;;;;;;;;;10.10;99.90;;;;;;5025523;28;19909;-68
2022/04/26 08:33:28;;;;;;;;;;;10.10;99.90;;;;;;5025773;28;19914;-67
2022/04/26 08:35:54;;;;;;;;;;;10.20;99.90;;;;;;5057165;28;19917;-66
2022/04/26 08:38:20;;;;;;;;;;;10.30;99.90;;;;;;5025677;28;19932;-67
2022/04/26 08:40:45;;;;;;;;;;;10.30;99.90;;;;;;5024326;28;19913;-68
2022/04/26 08:43:11;;;;;;;;;;;10.20;99.90;;;;;;5025413;28;20201;-67
2022/04/26 08:45:40;;;;;;;;;;;10.20;99.90;;;;;;5057399;28;19909;-67
2022/04/26 08:51:00;;;;;;;;;;;10.50;99.90;;;;;;5024040;28;19916;-67
2022/04/26 08:53:26;;;;;;;;;;;10.70;99.90;;;;;;5025446;28;19913;-67
2022/04/26 08:55:56;;;;;;;;;;;10.80;99.90;;;;;;5025252;28;19910;-67
2022/04/26 08:58:23;;;;;;;;;;;10.90;99.90;;;;;;5057209;28;20232;-67
2022/04/26 09:01:11;;;;;;;;;;;11.00;99.90;;;;;;5015458;28;19921;-67
2022/04/26 09:03:58;;;;;;;;;;;11.00;99.90;;;;;;5025456;28;19916;-67
2022/04/26 09:06:35;;;;;;;;;;;11.10;99.90;;;;;;5024307;28;19925;-67
2022/04/26 09:09:21;;;;;;;;;;;11.10;99.90;;;;;;5025016;28;19955;-68
2022/04/26 09:11:47;;;;;;;;;;;11.00;99.90;;;;;;5024744;28;19951;-68
2022/04/26 09:14:36;;;;;;;;;;;10.80;99.90;;;;;;5024402;28;20522;-68
2022/04/26 09:17:12;;;;;;;;;;;10.70;99.90;;;;;;5028494;28;19984;-68
2022/04/26 09:19:47;;;;;;;;;;;10.70;99.90;;;;;;5044644;28;20262;-67
2022/04/26 09:22:20;;;;;;;;;;;10.80;99.90;;;;;;5037895;28;20220;-67
2022/04/26 09:24:59;;;;;;;;;;;10.90;99.90;;;;;;5023256;28;19910;-67
2022/04/26 09:27:25;;;;;;;;;;;10.70;99.90;;;;;;5024786;28;19981;-68
2022/04/26 09:29:51;;;;;;;;;;;10.70;99.90;;;;;;5024790;28;20220;-68
2022/04/26 09:32:16;;;;;;;;;;;10.60;99.90;;;;;;5024831;28;19989;-68
2022/04/26 09:34:42;;;;;;;;;;;10.60;99.90;;;;;;5024213;28;20220;-68
2022/04/26 09:37:08;;;;;;;;;;;10.60;99.90;;;;;;5024490;28;19910;-67
2022/04/26 09:39:34;;;;;;;;;;;10.70;99.90;;;;;;5024661;28;20110;-67
2022/04/26 09:41:59;;;;;;;;;;;10.70;99.90;;;;;;5024415;28;20081;-67
2022/04/26 09:44:32;;;;;;;;;;;10.60;99.90;;;;;;5024585;28;19917;-68
2022/04/26 09:46:58;;;;;;;;;;;10.60;99.90;;;;;;5024717;28;20208;-67
2022/04/26 09:49:24;;;;;;;;;;;10.50;99.90;;;;;;5024452;28;19918;-67
2022/04/26 09:51:54;;;;;;;;;;;10.50;99.90;;;;;;5024441;28;19913;-67
2022/04/26 09:54:20;;;;;;;;;;;10.50;99.90;;;;;;5024227;28;19910;-67
2022/04/26 09:56:46;;;;;;;;;;;10.40;99.90;;;;;;5024616;28;19979;-68
2022/04/26 09:59:14;;;;;;;;;;;10.40;99.90;;;;;;5024380;28;19909;-67
2022/04/26 10:01:41;;;;;;;;;;;10.40;99.90;;;;;;5023192;28;19945;-67
2022/04/26 10:04:08;;;;;;;;;;;10.50;99.90;;;;;;5024282;28;20116;-67
2022/04/26 10:06:37;;;;;;;;;;;10.50;99.90;;;;;;5024202;28;20330;-67
2022/04/26 10:09:05;;;;;;;;;;;10.60;99.90;;;;;;5024007;28;19924;-68
2022/04/26 10:11:31;;;;;;;;;;;10.60;99.90;;;;;;5023856;28;19913;-68
2022/04/26 10:13:58;;;;;;;;;;;10.60;99.90;;;;;;5024064;28;19909;-68
2022/04/26 10:16:24;;;;;;;;;;;10.70;99.90;;;;;;5056170;28;19925;-68
2022/04/26 10:18:50;;;;;;;;;;;10.70;99.90;;;;;;5039429;28;19909;-68
2022/04/26 10:21:21;;;;;;;;;;;10.70;99.90;;;;;;5042464;28;20070;-68
2022/04/26 10:23:50;;;;;;;;;;;10.70;99.90;;;;;;5043746;28;20215;-67
2022/04/26 10:26:22;;;;;;;;;;;10.70;99.90;;;;;;5039434;28;19909;-68
2022/04/26 10:28:53;;;;;;;;;;;10.80;99.90;;;;;;5023667;28;19913;-68
2022/04/26 10:31:20;;;;;;;;;;;10.90;99.90;;;;;;5023497;28;19918;-68
2022/04/26 10:33:46;;;;;;;;;;;10.80;99.90;;;;;;5022997;28;19956;-68
2022/04/26 10:36:28;;;;;;;;;;;10.80;99.90;;;;;;5055946;28;19917;-68
2022/04/26 10:39:06;;;;;;;;;;;10.80;99.90;;;;;;5023692;28;19917;-68
2022/04/26 10:41:41;;;;;;;;;;;10.80;99.90;;;;;;5023340;28;19909;-68
2022/04/26 10:44:30;;;;;;;;;;;10.70;99.90;;;;;;5023409;28;19909;-68
2022/04/26 10:47:02;;;;;;;;;;;10.70;99.90;;;;;;5023192;28;20002;-68
2022/04/26 10:49:40;;;;;;;;;;;10.80;99.90;;;;;;5023262;28;19945;-68
2022/04/26 10:52:17;;;;;;;;;;;10.80;99.90;;;;;;5023128;28;19960;-68
2022/04/26 10:54:46;;;;;;;;;;;10.70;99.90;;;;;;5023239;28;19913;-68
2022/04/26 10:57:17;;;;;;;;;;;10.70;99.90;;;;;;5023278;28;20201;-67
2022/04/26 10:59:43;;;;;;;;;;;10.60;99.90;;;;;;5023086;28;20144;-68
2022/04/26 11:02:13;;;;;;;;;;;10.60;99.90;;;;;;5022780;28;20005;-68
2022/04/26 11:04:39;;;;;;;;;;;10.60;99.90;;;;;;5023126;28;20224;-67
2022/04/26 11:07:16;;;;;;;;;;;10.60;99.90;;;;;;5022944;28;19924;-67
2022/04/26 11:09:49;;;;;;;;;;;10.60;99.90;;;;;;5022866;28;19916;-67
2022/04/26 11:12:17;;;;;;;;;;;10.60;99.90;;;;;;5022933;28;20205;-67
2022/04/26 11:14:44;;;;;;;;;;;10.70;99.90;;;;;;5021802;28;19918;-68
2022/04/26 11:17:09;;;;;;;;;;;10.70;99.90;;;;;;5022673;28;19955;-68
2022/04/26 11:19:36;;;;;;;;;;;10.90;99.90;;;;;;5022909;28;19909;-68
2022/04/26 11:22:09;;;;;;;;;;;11.00;99.90;;;;;;5022818;28;19909;-67
2022/04/26 11:30:06;;;;;;;;;;;11.20;99.90;;;;;;5050311;28;19921;-67
2022/04/26 11:32:34;;;;;;;;;;;11.40;99.90;;;;;;5022244;28;19914;-67
2022/04/26 11:35:00;;;;;;;;;;;11.40;99.90;;;;;;5021763;28;19943;-68
2022/04/26 11:37:26;;;;;;;;;;;11.50;99.90;;;;;;5022462;28;19909;-68
2022/04/26 11:39:52;;;;;;;;;;;11.70;99.90;;;;;;5022916;28;20085;-68
2022/04/26 11:42:17;;;;;;;;;;;11.60;99.40;;;;;;5022393;28;19910;-67
2022/04/26 11:45:05;;;;;;;;;;;11.60;99.80;;;;;;5054556;28;20124;-68
2022/04/26 11:47:37;;;;;;;;;;;11.60;99.90;;;;;;5022456;28;19909;-68
2022/04/26 11:50:15;;;;;;;;;;;11.60;99.90;;;;;;5022789;28;20197;-68
2022/04/26 11:52:43;;;;;;;;;;;11.50;99.60;;;;;;5022762;28;20204;-68
2022/04/26 11:55:18;;;;;;;;;;;11.60;99.20;;;;;;5022789;28;20120;-67
2022/04/26 11:57:45;;;;;;;;;;;11.60;98.10;;;;;;5022492;28;20267;-68
2022/04/26 12:00:11;;;;;;;;;;;11.60;98.60;;;;;;5022501;28;20089;-68
2022/04/26 12:02:37;;;;;;;;;;;11.70;99.50;;;;;;5021138;28;20089;-67
2022/04/26 12:05:04;;;;;;;;;;;11.80;99.10;;;;;;5022416;28;19928;-68
2022/04/26 12:07:30;;;;;;;;;;;11.80;99.10;;;;;;5022341;28;20175;-67
2022/04/26 12:09:56;;;;;;;;;;;11.90;99.00;;;;;;5021078;28;19952;-68
2022/04/26 12:12:22;;;;;;;;;;;12.10;99.10;;;;;;5022048;28;19913;-67
2022/04/26 12:14:48;;;;;;;;;;;12.20;98.50;;;;;;5021182;28;19976;-67
2022/04/26 12:17:29;;;;;;;;;;;12.20;98.10;;;;;;5022036;28;19956;-68
2022/04/26 12:19:55;;;;;;;;;;;12.10;97.60;;;;;;5022212;28;19936;-68
2022/04/26 12:22:25;;;;;;;;;;;12.20;98.20;;;;;;5020939;28;19910;-68
2022/04/26 12:24:51;;;;;;;;;;;12.20;97.40;;;;;;5022360;28;19955;-68
2022/04/26 12:27:19;;;;;;;;;;;12.10;97.90;;;;;;5022029;28;20148;-67
2022/04/26 12:29:47;;;;;;;;;;;12.10;97.50;;;;;;5021988;28;19913;-68
2022/04/26 12:32:17;;;;;;;;;;;12.10;97.20;;;;;;5021723;28;20112;-68
2022/04/26 12:34:51;;;;;;;;;;;12.20;96.80;;;;;;5021856;28;20236;-69
2022/04/26 12:37:21;;;;;;;;;;;12.40;96.50;;;;;;5014105;28;19989;-68
2022/04/26 12:39:51;;;;;;;;;;;12.70;96.40;;;;;;5017248;28;19913;-68
2022/04/26 12:42:28;;;;;;;;;;;12.80;95.30;;;;;;5024006;28;19910;-67
2022/04/26 12:45:02;;;;;;;;;;;13.10;95.50;;;;;;5024438;28;19996;-68
2022/04/26 12:50:31;;;;;;;;;;;13.10;94.30;;;;;;5033115;28;19917;-70
2022/04/26 12:53:02;;;;;;;;;;;13.00;94.80;;;;;;5027119;28;19924;-68
2022/04/26 12:55:34;;;;;;;;;;;12.90;93.60;;;;;;5029572;28;19909;-68
2022/04/26 12:58:07;;;;;;;;;;;12.70;94.20;;;;;;5025052;28;19916;-67
2022/04/26 13:00:39;;;;;;;;;;;12.70;92.70;;;;;;5027815;28;20420;-67
2022/04/26 13:03:06;;;;;;;;;;;12.70;93.10;;;;;;5027994;28;19967;-68
2022/04/26 13:05:45;;;;;;;;;;;12.60;93.00;;;;;;5025322;28;19916;-67
2022/04/26 13:08:12;;;;;;;;;;;12.60;92.90;;;;;;5018493;28;20276;-68
2022/04/26 13:10:40;;;;;;;;;;;12.50;92.10;;;;;;5024547;28;19913;-68
2022/04/26 13:13:06;;;;;;;;;;;12.30;93.20;;;;;;5022575;28;19979;-68
2022/04/26 13:15:32;;;;;;;;;;;12.20;93.50;;;;;;5051204;28;19952;-68
2022/04/26 13:17:59;;;;;;;;;;;12.20;92.50;;;;;;5024307;28;19917;-68
2022/04/26 13:20:25;;;;;;;;;;;12.20;92.60;;;;;;5024755;28;20387;-68
2022/04/26 13:22:50;;;;;;;;;;;12.20;92.90;;;;;;5024427;28;19984;-67
2022/04/26 13:25:16;;;;;;;;;;;12.00;93.30;;;;;;5024786;28;20204;-68
2022/04/26 13:27:42;;;;;;;;;;;11.90;93.50;;;;;;5024524;28;19913;-68
2022/04/26 13:30:08;;;;;;;;;;;11.90;93.80;;;;;;5026357;28;19910;-68
2022/04/26 13:32:34;;;;;;;;;;;11.80;94.70;;;;;;5032381;28;19921;-68
2022/04/26 13:34:59;;;;;;;;;;;11.90;95.10;;;;;;5035282;28;19948;-68
2022/04/26 13:37:25;;;;;;;;;;;12.00;94.10;;;;;;5036314;28;20234;-69
2022/04/26 13:39:51;;;;;;;;;;;12.10;94.00;;;;;;5043555;28;19946;-74
2022/04/26 13:42:17;;;;;;;;;;;12.50;93.00;;;;;;5029799;28;20173;-73
2022/04/26 13:44:43;;;;;;;;;;;12.80;91.80;;;;;;5056806;28;19909;-73
2022/04/26 13:47:09;;;;;;;;;;;13.30;91.00;;;;;;5024118;28;19984;-74
2022/04/26 13:49:39;;;;;;;;;;;13.70;90.00;;;;;;5056625;28;19910;-73
2022/04/26 13:52:06;;;;;;;;;;;14.00;88.50;;;;;;5039432;28;20220;-72
2022/04/26 13:54:32;;;;;;;;;;;13.90;89.20;;;;;;5056323;28;19909;-72
2022/04/26 13:56:58;;;;;;;;;;;13.90;88.40;;;;;;5024213;28;20266;-72
2022/04/26 13:59:25;;;;;;;;;;;13.80;87.70;;;;;;5024078;28;19924;-72
2022/04/26 14:01:54;;;;;;;;;;;13.90;90.70;;;;;;5054799;28;19916;-72
2022/04/26 14:04:23;;;;;;;;;;;14.20;89.20;;;;;;5023367;28;19913;-72
2022/04/26 14:06:49;;;;;;;;;;;14.30;88.60;;;;;;5023410;28;19917;-73
2022/04/26 14:09:15;;;;;;;;;;;14.20;87.80;;;;;;5019339;28;19916;-72
2022/04/26 14:11:40;;;;;;;;;;;14.00;88.50;;;;;;5055520;28;19927;-72
2022/04/26 14:22:19;;;;;;;;;;;13.40;90.40;;;;;;5050848;28;20112;-73
2022/04/26 14:24:45;;;;;;;;;;;13.30;91.30;;;;;;5023892;28;19910;-72
2022/04/26 14:27:11;;;;;;;;;;;13.20;91.50;;;;;;5023593;28;19909;-72
2022/04/26 14:29:37;;;;;;;;;;;13.20;91.50;;;;;;5023676;28;19977;-72
2022/04/26 14:32:03;;;;;;;;;;;13.20;91.90;;;;;;5023236;28;20239;-72
2022/04/26 14:34:29;;;;;;;;;;;13.10;92.40;;;;;;5023698;28;19984;-73
2022/04/26 14:36:55;;;;;;;;;;;13.10;92.50;;;;;;5023227;28;19913;-73
2022/04/26 14:39:21;;;;;;;;;;;13.20;91.90;;;;;;5055573;28;20208;-73
2022/04/26 14:41:47;;;;;;;;;;;13.10;92.20;;;;;;5023048;28;19916;-72
2022/04/26 14:44:12;;;;;;;;;;;13.10;91.40;;;;;;5023496;28;19980;-73
2022/04/26 14:46:38;;;;;;;;;;;12.90;91.60;;;;;;5055421;28;19917;-72
2022/04/26 14:49:06;;;;;;;;;;;12.80;91.80;;;;;;5024862;28;19918;-72
2022/04/26 14:51:32;;;;;;;;;;;12.70;92.10;;;;;;5026407;28;19948;-72
2022/04/26 14:53:58;;;;;;;;;;;12.50;92.80;;;;;;5027450;28;19909;-72
2022/04/26 14:56:24;;;;;;;;;;;12.50;92.70;;;;;;5028230;28;19959;-72
2022/04/26 14:58:50;;;;;;;;;;;12.40;93.20;;;;;;5027673;28;19909;-73
2022/04/26 15:01:16;;;;;;;;;;;12.30;93.70;;;;;;5026755;28;19921;-73
2022/04/26 15:03:44;;;;;;;;;;;12.20;93.90;;;;;;5050927;28;19920;-73
2022/04/26 15:06:10;;;;;;;;;;;12.30;94.00;;;;;;5034556;28;19913;-73
2022/04/26 15:11:20;;;;;;;;;;;12.40;93.70;;;;;;5022112;28;19916;-73
2022/04/26 15:16:39;;;;;;;;;;;12.50;94.10;;;;;;5022877;28;19979;-73
2022/04/26 15:19:10;;;;;;;;;;;12.70;92.70;;;;;;5021494;28;19932;-74
2022/04/26 15:21:45;;;;;;;;;;;12.60;92.50;;;;;;5037477;28;19917;-73
2022/04/26 15:24:11;;;;;;;;;;;12.50;92.40;;;;;;5051295;28;19984;-74
2022/04/26 15:26:37;;;;;;;;;;;12.50;92.60;;;;;;5022764;28;19948;-73
2022/04/26 15:29:06;;;;;;;;;;;12.60;92.40;;;;;;5054413;28;20008;-74
2022/04/26 15:31:35;;;;;;;;;;;12.50;92.50;;;;;;5037558;28;19921;-73
2022/04/26 15:34:02;;;;;;;;;;;12.50;93.00;;;;;;5020512;28;20099;-73
2022/04/26 15:36:28;;;;;;;;;;;12.50;92.90;;;;;;5022505;28;19909;-73
2022/04/26 15:38:56;;;;;;;;;;;12.50;93.20;;;;;;5022680;28;19918;-72
2022/04/26 15:41:23;;;;;;;;;;;12.40;93.00;;;;;;5020947;28;20288;-73
2022/04/26 15:43:49;;;;;;;;;;;12.40;93.00;;;;;;5022639;28;19917;-74
2022/04/26 15:46:15;;;;;;;;;;;12.30;93.40;;;;;;5022339;28;19909;-74
2022/04/26 15:48:47;;;;;;;;;;;12.20;93.90;;;;;;5022275;28;19913;-74
2022/04/26 15:51:13;;;;;;;;;;;12.20;93.20;;;;;;5052240;28;19913;-73
2022/04/26 15:53:39;;;;;;;;;;;12.20;92.70;;;;;;5022577;28;19910;-73
2022/04/26 15:56:05;;;;;;;;;;;12.20;92.90;;;;;;5019780;28;20115;-73
2022/04/26 15:58:38;;;;;;;;;;;12.20;92.40;;;;;;5016199;28;19921;-75
2022/04/26 16:01:14;;;;;;;;;;;12.20;92.50;;;;;;5021323;28;19917;-73
2022/04/26 16:03:51;;;;;;;;;;;12.00;93.00;;;;;;5032326;28;20208;-73
2022/04/26 16:06:17;;;;;;;;;;;11.90;93.10;;;;;;5021021;28;19929;-74
2022/04/26 16:08:42;;;;;;;;;;;11.90;93.40;;;;;;5054235;28;20212;-73
2022/04/26 16:22:05;;;;;;;;;;;11.90;94.00;;;;;;5012061;28;19952;-73
2022/04/26 16:24:36;;;;;;;;;;;11.90;94.00;;;;;;5015768;28;19939;-73
2022/04/26 16:27:03;;;;;;;;;;;11.80;94.50;;;;;;5052534;28;19954;-73
2022/04/26 16:29:28;;;;;;;;;;;11.70;94.40;;;;;;5055344;28;19931;-73
2022/04/26 16:31:54;;;;;;;;;;;11.70;94.50;;;;;;5021509;28;20225;-73
2022/04/26 16:34:21;;;;;;;;;;;11.70;94.80;;;;;;5024113;28;19989;-73
2022/04/26 16:36:46;;;;;;;;;;;11.70;95.20;;;;;;5024545;28;20209;-72
2022/04/26 16:39:12;;;;;;;;;;;11.80;95.20;;;;;;5056848;28;19917;-73
2022/04/26 16:41:37;;;;;;;;;;;11.90;94.80;;;;;;5040049;28;19916;-73
2022/04/26 16:44:03;;;;;;;;;;;11.90;94.90;;;;;;5044552;28;19917;-73
2022/04/26 16:46:32;;;;;;;;;;;12.00;95.00;;;;;;5044656;28;19976;-73
2022/04/26 16:49:01;;;;;;;;;;;12.10;94.70;;;;;;5044330;28;19948;-73
2022/04/26 16:51:29;;;;;;;;;;;12.10;94.00;;;;;;5044659;28;20141;-73
2022/04/26 16:53:58;;;;;;;;;;;12.10;93.50;;;;;;5027946;28;19916;-72
2022/04/26 16:56:24;;;;;;;;;;;11.90;94.50;;;;;;5043747;28;19917;-72
2022/04/26 16:58:49;;;;;;;;;;;12.00;94.40;;;;;;5043458;28;20003;-73
2022/04/26 17:01:15;;;;;;;;;;;12.00;94.30;;;;;;5039362;28;20232;-72
2022/04/26 17:03:41;;;;;;;;;;;12.00;94.30;;;;;;5024937;28;19977;-72
2022/04/26 17:06:07;;;;;;;;;;;12.00;93.70;;;;;;5024373;28;19910;-72
2022/04/26 17:08:33;;;;;;;;;;;12.00;94.00;;;;;;5024332;28;19909;-72
2022/04/26 17:13:45;;;;;;;;;;;12.00;93.80;;;;;;5037047;28;20124;-73
2022/04/26 17:16:10;;;;;;;;;;;11.80;93.60;;;;;;5055598;28;19916;-73
2022/04/26 17:18:36;;;;;;;;;;;11.80;93.60;;;;;;5055573;28;19909;-72
2022/04/26 17:21:02;;;;;;;;;;;11.80;93.60;;;;;;5023787;28;19939;-72
2022/04/26 17:23:28;;;;;;;;;;;11.70;93.50;;;;;;5022697;28;19929;-72
2022/04/26 17:25:54;;;;;;;;;;;11.60;93.20;;;;;;5023669;28;19919;-72
2022/04/26 17:28:23;;;;;;;;;;;11.60;93.30;;;;;;5023643;28;19920;-72
2022/04/26 17:30:49;;;;;;;;;;;11.50;93.60;;;;;;5023579;28;19921;-73
2022/04/26 17:33:15;;;;;;;;;;;11.50;94.30;;;;;;5021927;28;20005;-72
2022/04/26 17:35:41;;;;;;;;;;;11.40;94.60;;;;;;5054653;28;20071;-73
2022/04/26 17:38:07;;;;;;;;;;;11.40;94.80;;;;;;5023792;28;19909;-72
2022/04/26 17:40:33;;;;;;;;;;;11.40;95.00;;;;;;5023533;28;19938;-72
2022/04/26 17:42:59;;;;;;;;;;;11.40;95.40;;;;;;5038896;28;19921;-72
2022/04/26 17:45:25;;;;;;;;;;;11.40;95.20;;;;;;5022353;28;19921;-72
2022/04/26 17:47:51;;;;;;;;;;;11.30;94.40;;;;;;5023142;28;20262;-72
2022/04/26 17:50:16;;;;;;;;;;;11.20;94.60;;;;;;5023262;28;20101;-72
2022/04/26 17:58:10;;;;;;;;;;;11.00;95.00;;;;;;5023448;28;20012;-74
2022/04/26 18:00:36;;;;;;;;;;;11.00;95.50;;;;;;5023229;28;20012;-74
2022/04/26 18:03:02;;;;;;;;;;;11.00;95.60;;;;;;5043641;28;19916;-74
2022/04/26 18:05:28;;;;;;;;;;;10.90;95.60;;;;;;5021758;28;19909;-74
2022/04/26 18:07:54;;;;;;;;;;;10.90;95.70;;;;;;5022848;28;19979;-74
2022/04/26 18:10:20;;;;;;;;;;;10.80;95.90;;;;;;5023057;28;19921;-73
2022/04/26 18:12:45;;;;;;;;;;;10.70;96.10;;;;;;5022684;28;20167;-74
2022/04/26 18:15:11;;;;;;;;;;;10.70;96.40;;;;;;5022901;28;20123;-74
2022/04/26 18:17:37;;;;;;;;;;;10.70;96.30;;;;;;5022507;28;20085;-74
2022/04/26 18:20:04;;;;;;;;;;;10.70;96.20;;;;;;5054886;28;20204;-74
2022/04/26 18:22:30;;;;;;;;;;;10.60;96.10;;;;;;5037085;28;20277;-74
2022/04/26 18:24:56;;;;;;;;;;;10.60;96.10;;;;;;5054610;28;19909;-74
2022/04/26 18:27:22;;;;;;;;;;;10.60;96.10;;;;;;5054226;28;19916;-74
2022/04/26 18:29:51;;;;;;;;;;;10.50;96.60;;;;;;5022663;28;19917;-74
2022/04/26 18:32:20;;;;;;;;;;;10.40;97.00;;;;;;5053641;28;20205;-74
2022/04/26 18:34:45;;;;;;;;;;;10.40;97.20;;;;;;5022537;28;19932;-74
2022/04/26 18:37:11;;;;;;;;;;;10.30;97.70;;;;;;5022264;28;19929;-74
2022/04/26 18:39:37;;;;;;;;;;;10.30;98.00;;;;;;5054844;28;20376;-74
2022/04/26 18:42:04;;;;;;;;;;;10.30;98.10;;;;;;5037588;28;20227;-74
2022/04/26 18:44:29;;;;;;;;;;;10.30;98.20;;;;;;5021482;28;20197;-74
2022/04/26 18:46:55;;;;;;;;;;;10.20;98.50;;;;;;5020946;28;19910;-74